Aeroporto :
LOGIN :

Iscrizione | Disclaimer

   EN    FR    IT 

 










Sommario :    VFR   VFR Marginale   IFR   IFR Intensivo   IFR Molto Intensivo
Visibilità : 
Base nubi : 
>= 8 km
>= 3000ft
5 / 8 km
1000 / 3000 ft
1500m / 5 km
500 / 1000 ft
800 / 1500m
200 / 500 ft
< 800m
< 200 ft
Simboli :   Temporali  Nebbia  Neve Forte  Precipitazioni Forti  Vento > 20 kt
SIGMETs :   Varie  Temporali  Ghiacco  Turbolenza  Onda orograficha  Ceneri Vulcaniche






- Altitudine del aeroporto : 3 ft
- Codice IATA : LWR


EHLW - Leuuwarden Air Base

ULTIMO METAR :
  • 080155Z AUTO 16004KT 9999 OVC049 12/11 Q1015 BLU

METARs OBSOLETI :
  • 080125Z AUTO 17003KT 130V190 9999 BKN050 OVC056 12/11 Q1015 BLU
  • 080055Z AUTO 15003KT 9999 FEW062 OVC069 12/10 Q1015 BLU
  • 080025Z AUTO 16003KT 9999 BKN047 OVC052 12/11 Q1016 BLU
  • 072355Z AUTO 17002KT 9999 FEW037 OVC052 12/11 Q1016 BLU

TAF TAF EHLW
Valido dal 08 a 01 ore il 08 a 13 ore UTC


080040Z 0801/0813 VRB03KT 9999 SCT030 BKN050
PROB30
TEMPO 0801/0810 SCT012 BKN015



MetMap, La meteo Aeronautica in un colpo d'occhio ! - Copyright ORBIFLY Dicembre 2007 - Disclaimer

ORBIFLY MET'MAP TEAM :

Programmazione e sviluppo : Alexandra Zaïnal
Concezione : Baudouin d'Aumeries
Aiuto per la programmazione : Marc-Olivier Méhu
Supporto tecnico e logistico : Manuel Goepfert
Aiuto per la traduzione : Arnaldo La Scala

Contatto : metmap@orbifly.com




FONTI E CREDITI :

   NOAA